sensor_id;sensor_type;location;lat;lon;timestamp;P1;durP1;ratioP1;P2;durP2;ratioP2
51618;SDS011;38518;53.164;5.430;2024-01-30T00:01:51;39.63;;;29.63;;
51618;SDS011;38518;53.164;5.430;2024-01-30T00:04:17;40.67;;;35.25;;
51618;SDS011;38518;53.164;5.430;2024-01-30T00:06:43;41.28;;;29.35;;
51618;SDS011;38518;53.164;5.430;2024-01-30T00:09:10;38.97;;;34.55;;
51618;SDS011;38518;53.164;5.430;2024-01-30T00:11:36;40.95;;;34.85;;
51618;SDS011;38518;53.164;5.430;2024-01-30T00:14:03;40.20;;;30.20;;
51618;SDS011;38518;53.164;5.430;2024-01-30T00:16:29;40.15;;;29.13;;
51618;SDS011;38518;53.164;5.430;2024-01-30T00:18:55;39.40;;;35.10;;
51618;SDS011;38518;53.164;5.430;2024-01-30T00:21:21;38.22;;;29.75;;
51618;SDS011;38518;53.164;5.430;2024-01-30T00:23:47;39.72;;;35.63;;
51618;SDS011;38518;53.164;5.430;2024-01-30T00:26:13;43.55;;;29.67;;
51618;SDS011;38518;53.164;5.430;2024-01-30T00:28:42;47.25;;;30.05;;
51618;SDS011;38518;53.164;5.430;2024-01-30T00:31:08;39.58;;;34.60;;
51618;SDS011;38518;53.164;5.430;2024-01-30T00:33:40;38.45;;;28.15;;
51618;SDS011;38518;53.164;5.430;2024-01-30T00:36:07;42.08;;;29.90;;
51618;SDS011;38518;53.164;5.430;2024-01-30T00:38:33;45.70;;;31.63;;
51618;SDS011;38518;53.164;5.430;2024-01-30T00:40:59;40.20;;;28.73;;
51618;SDS011;38518;53.164;5.430;2024-01-30T00:43:26;40.53;;;36.10;;
51618;SDS011;38518;53.164;5.430;2024-01-30T00:45:52;44.10;;;30.48;;
51618;SDS011;38518;53.164;5.430;2024-01-30T00:48:19;41.17;;;36.63;;
51618;SDS011;38518;53.164;5.430;2024-01-30T00:50:45;43.08;;;28.98;;
51618;SDS011;38518;53.164;5.430;2024-01-30T00:53:11;38.58;;;28.20;;
51618;SDS011;38518;53.164;5.430;2024-01-30T00:55:36;41.95;;;28.42;;
51618;SDS011;38518;53.164;5.430;2024-01-30T00:58:02;40.50;;;28.10;;
51618;SDS011;38518;53.164;5.430;2024-01-30T01:00:28;42.95;;;36.08;;
51618;SDS011;38518;53.164;5.430;2024-01-30T01:02:57;40.20;;;29.45;;
51618;SDS011;38518;53.164;5.430;2024-01-30T01:05:24;43.53;;;36.10;;
51618;SDS011;38518;53.164;5.430;2024-01-30T01:07:50;41.55;;;30.05;;
51618;SDS011;38518;53.164;5.430;2024-01-30T01:10:16;45.40;;;28.55;;
51618;SDS011;38518;53.164;5.430;2024-01-30T01:12:43;41.78;;;29.48;;
51618;SDS011;38518;53.164;5.430;2024-01-30T01:15:09;44.67;;;29.33;;
51618;SDS011;38518;53.164;5.430;2024-01-30T01:17:35;40.97;;;36.47;;
51618;SDS011;38518;53.164;5.430;2024-01-30T01:20:02;39.95;;;29.58;;
51618;SDS011;38518;53.164;5.430;2024-01-30T01:22:30;38.47;;;34.53;;
51618;SDS011;38518;53.164;5.430;2024-01-30T01:24:56;40.08;;;29.95;;
51618;SDS011;38518;53.164;5.430;2024-01-30T01:27:22;38.53;;;29.73;;
51618;SDS011;38518;53.164;5.430;2024-01-30T01:29:47;39.75;;;35.55;;
51618;SDS011;38518;53.164;5.430;2024-01-30T01:32:13;39.33;;;29.60;;
51618;SDS011;38518;53.164;5.430;2024-01-30T01:34:39;43.20;;;29.23;;
51618;SDS011;38518;53.164;5.430;2024-01-30T01:37:04;36.85;;;28.60;;
51618;SDS011;38518;53.164;5.430;2024-01-30T01:39:30;39.95;;;35.75;;
51618;SDS011;38518;53.164;5.430;2024-01-30T01:41:56;39.95;;;35.75;;
51618;SDS011;38518;53.164;5.430;2024-01-30T01:44:22;35.08;;;26.48;;
51618;SDS011;38518;53.164;5.430;2024-01-30T01:46:47;39.80;;;35.45;;
51618;SDS011;38518;53.164;5.430;2024-01-30T01:49:14;38.60;;;27.48;;
51618;SDS011;38518;53.164;5.430;2024-01-30T01:51:40;38.30;;;28.08;;
51618;SDS011;38518;53.164;5.430;2024-01-30T01:54:07;40.92;;;29.60;;
51618;SDS011;38518;53.164;5.430;2024-01-30T01:56:34;42.72;;;29.88;;
51618;SDS011;38518;53.164;5.430;2024-01-30T01:59:04;40.63;;;29.75;;
51618;SDS011;38518;53.164;5.430;2024-01-30T02:01:38;35.28;;;25.50;;
51618;SDS011;38518;53.164;5.430;2024-01-30T02:04:06;39.20;;;34.90;;
51618;SDS011;38518;53.164;5.430;2024-01-30T02:06:33;41.80;;;30.35;;
51618;SDS011;38518;53.164;5.430;2024-01-30T02:09:02;39.05;;;29.80;;
51618;SDS011;38518;53.164;5.430;2024-01-30T02:11:29;38.67;;;34.50;;
51618;SDS011;38518;53.164;5.430;2024-01-30T02:13:55;38.10;;;28.50;;
51618;SDS011;38518;53.164;5.430;2024-01-30T02:16:21;40.40;;;28.75;;
51618;SDS011;38518;53.164;5.430;2024-01-30T02:18:47;35.28;;;26.75;;
51618;SDS011;38518;53.164;5.430;2024-01-30T02:21:16;38.30;;;34.08;;
51618;SDS011;38518;53.164;5.430;2024-01-30T02:23:43;38.83;;;34.55;;
51618;SDS011;38518;53.164;5.430;2024-01-30T02:26:11;35.45;;;25.48;;
51618;SDS011;38518;53.164;5.430;2024-01-30T02:28:37;36.17;;;26.73;;
51618;SDS011;38518;53.164;5.430;2024-01-30T02:31:03;34.65;;;26.40;;
51618;SDS011;38518;53.164;5.430;2024-01-30T02:33:29;38.25;;;27.75;;
51618;SDS011;38518;53.164;5.430;2024-01-30T02:35:54;35.83;;;27.52;;
51618;SDS011;38518;53.164;5.430;2024-01-30T02:38:20;38.47;;;32.25;;
51618;SDS011;38518;53.164;5.430;2024-01-30T02:40:46;37.53;;;31.65;;
51618;SDS011;38518;53.164;5.430;2024-01-30T02:43:12;36.35;;;31.70;;
51618;SDS011;38518;53.164;5.430;2024-01-30T02:45:37;37.33;;;26.17;;
51618;SDS011;38518;53.164;5.430;2024-01-30T02:48:03;40.05;;;26.63;;
51618;SDS011;38518;53.164;5.430;2024-01-30T02:50:29;34.20;;;30.05;;
51618;SDS011;38518;53.164;5.430;2024-01-30T02:52:55;33.75;;;25.63;;
51618;SDS011;38518;53.164;5.430;2024-01-30T02:55:20;34.15;;;24.92;;
51618;SDS011;38518;53.164;5.430;2024-01-30T02:57:46;34.35;;;30.75;;
51618;SDS011;38518;53.164;5.430;2024-01-30T03:00:12;32.25;;;21.50;;
51618;SDS011;38518;53.164;5.430;2024-01-30T03:02:38;38.38;;;27.20;;
51618;SDS011;38518;53.164;5.430;2024-01-30T03:05:05;34.53;;;25.50;;
51618;SDS011;38518;53.164;5.430;2024-01-30T03:07:31;35.10;;;30.48;;
51618;SDS011;38518;53.164;5.430;2024-01-30T03:09:57;36.53;;;25.55;;
51618;SDS011;38518;53.164;5.430;2024-01-30T03:12:22;36.58;;;27.13;;
51618;SDS011;38518;53.164;5.430;2024-01-30T03:14:48;33.92;;;30.27;;
51618;SDS011;38518;53.164;5.430;2024-01-30T03:17:14;35.00;;;30.88;;
51618;SDS011;38518;53.164;5.430;2024-01-30T03:19:40;36.08;;;24.90;;
51618;SDS011;38518;53.164;5.430;2024-01-30T03:22:06;35.97;;;25.10;;
51618;SDS011;38518;53.164;5.430;2024-01-30T03:24:32;34.35;;;23.77;;
51618;SDS011;38518;53.164;5.430;2024-01-30T03:26:58;35.28;;;24.83;;
51618;SDS011;38518;53.164;5.430;2024-01-30T03:29:23;34.03;;;23.38;;
51618;SDS011;38518;53.164;5.430;2024-01-30T03:31:49;31.20;;;27.48;;
51618;SDS011;38518;53.164;5.430;2024-01-30T03:34:15;32.47;;;24.88;;
51618;SDS011;38518;53.164;5.430;2024-01-30T03:36:40;32.58;;;29.17;;
51618;SDS011;38518;53.164;5.430;2024-01-30T03:39:06;28.27;;;21.67;;
51618;SDS011;38518;53.164;5.430;2024-01-30T03:41:32;33.58;;;28.23;;
51618;SDS011;38518;53.164;5.430;2024-01-30T03:43:58;32.58;;;24.10;;
51618;SDS011;38518;53.164;5.430;2024-01-30T03:46:23;32.55;;;22.48;;
51618;SDS011;38518;53.164;5.430;2024-01-30T03:48:49;32.28;;;23.15;;
51618;SDS011;38518;53.164;5.430;2024-01-30T03:51:15;29.90;;;26.70;;
51618;SDS011;38518;53.164;5.430;2024-01-30T03:53:41;30.70;;;26.80;;
51618;SDS011;38518;53.164;5.430;2024-01-30T03:56:08;30.60;;;20.75;;
51618;SDS011;38518;53.164;5.430;2024-01-30T03:58:34;29.98;;;21.85;;
51618;SDS011;38518;53.164;5.430;2024-01-30T04:01:00;30.25;;;27.10;;
51618;SDS011;38518;53.164;5.430;2024-01-30T04:03:26;30.33;;;20.85;;
51618;SDS011;38518;53.164;5.430;2024-01-30T04:05:52;30.10;;;26.20;;
51618;SDS011;38518;53.164;5.430;2024-01-30T04:08:18;28.25;;;21.38;;
51618;SDS011;38518;53.164;5.430;2024-01-30T04:10:44;29.73;;;22.17;;
51618;SDS011;38518;53.164;5.430;2024-01-30T04:13:10;28.90;;;24.95;;
51618;SDS011;38518;53.164;5.430;2024-01-30T04:15:35;27.83;;;20.85;;
51618;SDS011;38518;53.164;5.430;2024-01-30T04:18:01;26.90;;;23.65;;
51618;SDS011;38518;53.164;5.430;2024-01-30T04:20:27;27.42;;;19.75;;
51618;SDS011;38518;53.164;5.430;2024-01-30T04:22:53;25.85;;;23.05;;
51618;SDS011;38518;53.164;5.430;2024-01-30T04:25:19;29.40;;;24.35;;
51618;SDS011;38518;53.164;5.430;2024-01-30T04:27:44;26.70;;;19.85;;
51618;SDS011;38518;53.164;5.430;2024-01-30T04:30:10;26.83;;;23.88;;
51618;SDS011;38518;53.164;5.430;2024-01-30T04:32:36;25.80;;;19.95;;
51618;SDS011;38518;53.164;5.430;2024-01-30T04:35:02;27.88;;;20.13;;
51618;SDS011;38518;53.164;5.430;2024-01-30T04:37:28;27.35;;;24.42;;
51618;SDS011;38518;53.164;5.430;2024-01-30T04:39:54;27.70;;;22.17;;
51618;SDS011;38518;53.164;5.430;2024-01-30T04:42:19;29.33;;;23.92;;
51618;SDS011;38518;53.164;5.430;2024-01-30T04:44:45;27.77;;;20.70;;
51618;SDS011;38518;53.164;5.430;2024-01-30T04:47:11;27.33;;;19.90;;
51618;SDS011;38518;53.164;5.430;2024-01-30T04:49:40;29.80;;;21.40;;
51618;SDS011;38518;53.164;5.430;2024-01-30T04:52:07;27.13;;;24.17;;
51618;SDS011;38518;53.164;5.430;2024-01-30T04:54:33;26.92;;;20.42;;
51618;SDS011;38518;53.164;5.430;2024-01-30T04:57:00;25.75;;;22.77;;
51618;SDS011;38518;53.164;5.430;2024-01-30T04:59:26;25.55;;;19.67;;
51618;SDS011;38518;53.164;5.430;2024-01-30T05:01:51;26.60;;;23.75;;
51618;SDS011;38518;53.164;5.430;2024-01-30T05:04:17;26.30;;;23.50;;
51618;SDS011;38518;53.164;5.430;2024-01-30T05:06:43;27.10;;;18.98;;
51618;SDS011;38518;53.164;5.430;2024-01-30T05:09:10;26.05;;;23.40;;
51618;SDS011;38518;53.164;5.430;2024-01-30T05:11:37;26.45;;;19.25;;
51618;SDS011;38518;53.164;5.430;2024-01-30T05:14:03;27.10;;;20.48;;
51618;SDS011;38518;53.164;5.430;2024-01-30T05:16:29;26.48;;;23.67;;
51618;SDS011;38518;53.164;5.430;2024-01-30T05:18:55;26.83;;;24.02;;
51618;SDS011;38518;53.164;5.430;2024-01-30T05:21:21;23.33;;;18.98;;
51618;SDS011;38518;53.164;5.430;2024-01-30T05:23:47;25.17;;;18.92;;
51618;SDS011;38518;53.164;5.430;2024-01-30T05:26:12;26.42;;;23.63;;
51618;SDS011;38518;53.164;5.430;2024-01-30T05:28:38;23.55;;;19.02;;
51618;SDS011;38518;53.164;5.430;2024-01-30T05:31:04;27.38;;;19.98;;
51618;SDS011;38518;53.164;5.430;2024-01-30T05:33:29;27.20;;;20.15;;
51618;SDS011;38518;53.164;5.430;2024-01-30T05:35:55;25.70;;;21.35;;
51618;SDS011;38518;53.164;5.430;2024-01-30T05:38:21;25.15;;;18.70;;
51618;SDS011;38518;53.164;5.430;2024-01-30T05:40:46;25.90;;;23.10;;
51618;SDS011;38518;53.164;5.430;2024-01-30T05:43:12;24.10;;;19.52;;
51618;SDS011;38518;53.164;5.430;2024-01-30T05:45:38;24.63;;;21.92;;
51618;SDS011;38518;53.164;5.430;2024-01-30T05:48:04;26.55;;;18.73;;
51618;SDS011;38518;53.164;5.430;2024-01-30T05:50:30;29.25;;;18.67;;
51618;SDS011;38518;53.164;5.430;2024-01-30T05:52:56;26.40;;;23.08;;
51618;SDS011;38518;53.164;5.430;2024-01-30T05:55:22;26.35;;;22.90;;
51618;SDS011;38518;53.164;5.430;2024-01-30T05:57:47;23.92;;;18.00;;
51618;SDS011;38518;53.164;5.430;2024-01-30T06:00:13;23.80;;;21.30;;
51618;SDS011;38518;53.164;5.430;2024-01-30T06:02:39;25.20;;;18.83;;
51618;SDS011;38518;53.164;5.430;2024-01-30T06:05:05;27.58;;;22.52;;
51618;SDS011;38518;53.164;5.430;2024-01-30T06:07:31;23.75;;;18.10;;
51618;SDS011;38518;53.164;5.430;2024-01-30T06:09:57;23.58;;;18.02;;
51618;SDS011;38518;53.164;5.430;2024-01-30T06:12:22;23.88;;;21.38;;
51618;SDS011;38518;53.164;5.430;2024-01-30T06:14:48;26.90;;;19.00;;
51618;SDS011;38518;53.164;5.430;2024-01-30T06:17:14;25.45;;;18.15;;
51618;SDS011;38518;53.164;5.430;2024-01-30T06:19:39;22.75;;;18.08;;
51618;SDS011;38518;53.164;5.430;2024-01-30T06:22:05;21.25;;;17.02;;
51618;SDS011;38518;53.164;5.430;2024-01-30T06:24:31;22.65;;;18.40;;
51618;SDS011;38518;53.164;5.430;2024-01-30T06:26:56;24.95;;;21.98;;
51618;SDS011;38518;53.164;5.430;2024-01-30T06:29:22;25.77;;;18.90;;
51618;SDS011;38518;53.164;5.430;2024-01-30T06:31:49;26.55;;;19.58;;
51618;SDS011;38518;53.164;5.430;2024-01-30T06:34:15;24.50;;;21.75;;
51618;SDS011;38518;53.164;5.430;2024-01-30T06:36:41;26.00;;;18.95;;
51618;SDS011;38518;53.164;5.430;2024-01-30T06:39:07;27.15;;;19.95;;
51618;SDS011;38518;53.164;5.430;2024-01-30T06:41:33;24.58;;;21.70;;
51618;SDS011;38518;53.164;5.430;2024-01-30T06:43:59;23.90;;;18.67;;
51618;SDS011;38518;53.164;5.430;2024-01-30T06:46:24;25.75;;;23.02;;
51618;SDS011;38518;53.164;5.430;2024-01-30T06:48:50;22.98;;;18.30;;
51618;SDS011;38518;53.164;5.430;2024-01-30T06:51:16;21.52;;;16.40;;
51618;SDS011;38518;53.164;5.430;2024-01-30T06:53:42;25.50;;;22.75;;
51618;SDS011;38518;53.164;5.430;2024-01-30T06:56:07;28.23;;;19.70;;
51618;SDS011;38518;53.164;5.430;2024-01-30T06:58:33;27.55;;;18.55;;
51618;SDS011;38518;53.164;5.430;2024-01-30T07:00:59;25.77;;;22.30;;
51618;SDS011;38518;53.164;5.430;2024-01-30T07:03:25;21.65;;;16.95;;
51618;SDS011;38518;53.164;5.430;2024-01-30T07:05:50;26.10;;;19.13;;
51618;SDS011;38518;53.164;5.430;2024-01-30T07:08:16;24.83;;;22.33;;
51618;SDS011;38518;53.164;5.430;2024-01-30T07:10:45;24.90;;;22.42;;
51618;SDS011;38518;53.164;5.430;2024-01-30T07:13:12;24.65;;;19.33;;
51618;SDS011;38518;53.164;5.430;2024-01-30T07:15:38;24.90;;;22.25;;
51618;SDS011;38518;53.164;5.430;2024-01-30T07:18:04;23.48;;;18.50;;
51618;SDS011;38518;53.164;5.430;2024-01-30T07:20:30;26.35;;;23.33;;
51618;SDS011;38518;53.164;5.430;2024-01-30T07:23:00;24.63;;;22.02;;
51618;SDS011;38518;53.164;5.430;2024-01-30T07:25:26;28.23;;;19.15;;
51618;SDS011;38518;53.164;5.430;2024-01-30T07:27:55;25.75;;;21.92;;
51618;SDS011;38518;53.164;5.430;2024-01-30T07:30:21;27.30;;;19.45;;
51618;SDS011;38518;53.164;5.430;2024-01-30T07:32:48;26.75;;;21.77;;
51618;SDS011;38518;53.164;5.430;2024-01-30T07:35:14;25.80;;;22.98;;
51618;SDS011;38518;53.164;5.430;2024-01-30T07:37:40;26.60;;;18.80;;
51618;SDS011;38518;53.164;5.430;2024-01-30T07:40:05;26.35;;;17.58;;
51618;SDS011;38518;53.164;5.430;2024-01-30T07:42:32;25.38;;;18.80;;
51618;SDS011;38518;53.164;5.430;2024-01-30T07:44:58;23.33;;;18.42;;
51618;SDS011;38518;53.164;5.430;2024-01-30T07:47:25;24.08;;;21.67;;
51618;SDS011;38518;53.164;5.430;2024-01-30T07:49:51;25.92;;;19.20;;
51618;SDS011;38518;53.164;5.430;2024-01-30T07:52:16;26.42;;;18.73;;
51618;SDS011;38518;53.164;5.430;2024-01-30T07:54:42;26.35;;;22.73;;
51618;SDS011;38518;53.164;5.430;2024-01-30T07:57:15;26.90;;;19.73;;
51618;SDS011;38518;53.164;5.430;2024-01-30T07:59:44;24.20;;;21.70;;
51618;SDS011;38518;53.164;5.430;2024-01-30T08:02:11;24.70;;;17.58;;
51618;SDS011;38518;53.164;5.430;2024-01-30T08:04:37;23.50;;;19.23;;
51618;SDS011;38518;53.164;5.430;2024-01-30T08:07:03;25.13;;;21.88;;
51618;SDS011;38518;53.164;5.430;2024-01-30T08:09:29;24.17;;;21.67;;
51618;SDS011;38518;53.164;5.430;2024-01-30T08:11:55;23.80;;;17.63;;
51618;SDS011;38518;53.164;5.430;2024-01-30T08:14:20;30.88;;;18.60;;
51618;SDS011;38518;53.164;5.430;2024-01-30T08:16:46;24.65;;;21.95;;
51618;SDS011;38518;53.164;5.430;2024-01-30T08:19:12;26.27;;;22.30;;
51618;SDS011;38518;53.164;5.430;2024-01-30T08:21:37;25.58;;;18.92;;
51618;SDS011;38518;53.164;5.430;2024-01-30T08:24:03;24.30;;;21.25;;
51618;SDS011;38518;53.164;5.430;2024-01-30T08:26:30;24.13;;;21.45;;
51618;SDS011;38518;53.164;5.430;2024-01-30T08:28:57;26.42;;;19.17;;
51618;SDS011;38518;53.164;5.430;2024-01-30T08:31:22;26.52;;;18.80;;
51618;SDS011;38518;53.164;5.430;2024-01-30T08:33:48;24.52;;;17.23;;
51618;SDS011;38518;53.164;5.430;2024-01-30T08:36:15;26.13;;;21.38;;
51618;SDS011;38518;53.164;5.430;2024-01-30T08:38:41;24.73;;;17.35;;
51618;SDS011;38518;53.164;5.430;2024-01-30T08:41:07;24.33;;;20.00;;
51618;SDS011;38518;53.164;5.430;2024-01-30T08:43:33;23.63;;;19.77;;
51618;SDS011;38518;53.164;5.430;2024-01-30T08:45:59;23.60;;;17.30;;
51618;SDS011;38518;53.164;5.430;2024-01-30T08:48:25;22.30;;;17.63;;
51618;SDS011;38518;53.164;5.430;2024-01-30T08:50:52;29.50;;;20.75;;
51618;SDS011;38518;53.164;5.430;2024-01-30T08:53:17;21.35;;;17.00;;
51618;SDS011;38518;53.164;5.430;2024-01-30T08:55:43;24.10;;;20.40;;
51618;SDS011;38518;53.164;5.430;2024-01-30T08:58:09;23.98;;;16.92;;
51618;SDS011;38518;53.164;5.430;2024-01-30T09:00:35;24.58;;;20.30;;
51618;SDS011;38518;53.164;5.430;2024-01-30T09:03:01;23.38;;;17.98;;
51618;SDS011;38518;53.164;5.430;2024-01-30T09:05:28;26.00;;;19.70;;
51618;SDS011;38518;53.164;5.430;2024-01-30T09:07:53;27.30;;;17.55;;
51618;SDS011;38518;53.164;5.430;2024-01-30T09:10:19;24.33;;;20.58;;
51618;SDS011;38518;53.164;5.430;2024-01-30T09:12:45;23.30;;;16.67;;
51618;SDS011;38518;53.164;5.430;2024-01-30T09:15:11;24.27;;;16.25;;
51618;SDS011;38518;53.164;5.430;2024-01-30T09:17:38;23.77;;;16.85;;
51618;SDS011;38518;53.164;5.430;2024-01-30T09:20:04;25.15;;;18.45;;
51618;SDS011;38518;53.164;5.430;2024-01-30T09:22:30;23.40;;;17.05;;
51618;SDS011;38518;53.164;5.430;2024-01-30T09:24:56;23.15;;;19.13;;
51618;SDS011;38518;53.164;5.430;2024-01-30T09:27:22;22.63;;;18.65;;
51618;SDS011;38518;53.164;5.430;2024-01-30T09:29:48;21.92;;;16.02;;
51618;SDS011;38518;53.164;5.430;2024-01-30T09:32:14;26.08;;;16.48;;
51618;SDS011;38518;53.164;5.430;2024-01-30T09:34:40;26.50;;;19.80;;
51618;SDS011;38518;53.164;5.430;2024-01-30T09:37:06;21.77;;;19.23;;
51618;SDS011;38518;53.164;5.430;2024-01-30T09:39:32;25.40;;;19.00;;
51618;SDS011;38518;53.164;5.430;2024-01-30T09:44:46;24.75;;;15.45;;
51618;SDS011;38518;53.164;5.430;2024-01-30T09:47:15;21.75;;;15.90;;
51618;SDS011;38518;53.164;5.430;2024-01-30T09:49:43;25.42;;;12.43;;
51618;SDS011;38518;53.164;5.430;2024-01-30T09:52:09;29.92;;;12.93;;
51618;SDS011;38518;53.164;5.430;2024-01-30T09:54:35;32.38;;;15.95;;
51618;SDS011;38518;53.164;5.430;2024-01-30T09:57:03;29.58;;;13.35;;
51618;SDS011;38518;53.164;5.430;2024-01-30T09:59:29;29.63;;;10.98;;
51618;SDS011;38518;53.164;5.430;2024-01-30T10:01:55;28.25;;;14.07;;
51618;SDS011;38518;53.164;5.430;2024-01-30T10:04:22;31.80;;;12.80;;
51618;SDS011;38518;53.164;5.430;2024-01-30T10:06:48;18.95;;;8.38;;
51618;SDS011;38518;53.164;5.430;2024-01-30T10:09:14;23.83;;;9.68;;
51618;SDS011;38518;53.164;5.430;2024-01-30T10:11:40;28.60;;;11.15;;
51618;SDS011;38518;53.164;5.430;2024-01-30T10:14:06;29.67;;;10.63;;
51618;SDS011;38518;53.164;5.430;2024-01-30T10:16:31;24.80;;;9.13;;
51618;SDS011;38518;53.164;5.430;2024-01-30T10:18:57;23.95;;;7.40;;
51618;SDS011;38518;53.164;5.430;2024-01-30T10:21:23;20.25;;;7.43;;
51618;SDS011;38518;53.164;5.430;2024-01-30T10:23:49;26.75;;;9.60;;
51618;SDS011;38518;53.164;5.430;2024-01-30T10:26:18;26.73;;;9.02;;
51618;SDS011;38518;53.164;5.430;2024-01-30T10:28:44;22.50;;;7.53;;
51618;SDS011;38518;53.164;5.430;2024-01-30T10:31:10;25.08;;;8.55;;
51618;SDS011;38518;53.164;5.430;2024-01-30T10:33:36;28.40;;;9.10;;
51618;SDS011;38518;53.164;5.430;2024-01-30T10:36:02;24.13;;;7.95;;
51618;SDS011;38518;53.164;5.430;2024-01-30T10:38:29;21.15;;;6.95;;
51618;SDS011;38518;53.164;5.430;2024-01-30T10:40:56;21.15;;;6.57;;
51618;SDS011;38518;53.164;5.430;2024-01-30T10:43:23;22.85;;;6.65;;
51618;SDS011;38518;53.164;5.430;2024-01-30T10:46:19;18.15;;;5.35;;
51618;SDS011;38518;53.164;5.430;2024-01-30T10:48:50;20.60;;;6.63;;
51618;SDS011;38518;53.164;5.430;2024-01-30T10:51:22;18.27;;;4.80;;
51618;SDS011;38518;53.164;5.430;2024-01-30T10:53:48;13.88;;;4.88;;
51618;SDS011;38518;53.164;5.430;2024-01-30T10:56:16;17.30;;;5.93;;
51618;SDS011;38518;53.164;5.430;2024-01-30T10:58:41;16.90;;;5.55;;
51618;SDS011;38518;53.164;5.430;2024-01-30T11:01:07;17.30;;;5.35;;
51618;SDS011;38518;53.164;5.430;2024-01-30T11:03:34;12.07;;;3.55;;
51618;SDS011;38518;53.164;5.430;2024-01-30T11:06:01;14.48;;;3.53;;
51618;SDS011;38518;53.164;5.430;2024-01-30T11:08:28;15.13;;;4.63;;
51618;SDS011;38518;53.164;5.430;2024-01-30T11:10:57;17.05;;;5.43;;
51618;SDS011;38518;53.164;5.430;2024-01-30T11:13:27;20.70;;;5.55;;
51618;SDS011;38518;53.164;5.430;2024-01-30T11:16:05;14.35;;;3.50;;
51618;SDS011;38518;53.164;5.430;2024-01-30T11:18:32;16.15;;;3.70;;
51618;SDS011;38518;53.164;5.430;2024-01-30T11:21:01;16.23;;;4.05;;
51618;SDS011;38518;53.164;5.430;2024-01-30T11:23:30;17.83;;;3.90;;
51618;SDS011;38518;53.164;5.430;2024-01-30T11:25:58;20.42;;;4.13;;
51618;SDS011;38518;53.164;5.430;2024-01-30T11:28:23;15.88;;;4.65;;
51618;SDS011;38518;53.164;5.430;2024-01-30T11:30:49;10.60;;;3.22;;
51618;SDS011;38518;53.164;5.430;2024-01-30T11:33:28;16.13;;;4.25;;
51618;SDS011;38518;53.164;5.430;2024-01-30T11:35:58;19.02;;;5.05;;
51618;SDS011;38518;53.164;5.430;2024-01-30T11:38:25;13.25;;;3.53;;
51618;SDS011;38518;53.164;5.430;2024-01-30T11:40:54;21.58;;;6.18;;
51618;SDS011;38518;53.164;5.430;2024-01-30T11:43:22;21.20;;;4.32;;
51618;SDS011;38518;53.164;5.430;2024-01-30T11:45:48;15.07;;;4.78;;
51618;SDS011;38518;53.164;5.430;2024-01-30T11:48:14;13.52;;;4.22;;
51618;SDS011;38518;53.164;5.430;2024-01-30T11:50:40;15.07;;;4.63;;
51618;SDS011;38518;53.164;5.430;2024-01-30T11:53:06;13.13;;;4.40;;
51618;SDS011;38518;53.164;5.430;2024-01-30T11:55:33;21.98;;;5.13;;
51618;SDS011;38518;53.164;5.430;2024-01-30T11:58:01;17.30;;;4.50;;
51618;SDS011;38518;53.164;5.430;2024-01-30T12:00:27;19.30;;;4.80;;
51618;SDS011;38518;53.164;5.430;2024-01-30T12:02:54;17.42;;;3.35;;
51618;SDS011;38518;53.164;5.430;2024-01-30T12:05:25;13.63;;;3.92;;
51618;SDS011;38518;53.164;5.430;2024-01-30T12:07:51;15.80;;;3.08;;
51618;SDS011;38518;53.164;5.430;2024-01-30T12:10:17;15.10;;;3.88;;
51618;SDS011;38518;53.164;5.430;2024-01-30T12:12:45;14.05;;;4.18;;
51618;SDS011;38518;53.164;5.430;2024-01-30T12:15:12;11.73;;;3.80;;
51618;SDS011;38518;53.164;5.430;2024-01-30T12:17:38;12.95;;;3.97;;
51618;SDS011;38518;53.164;5.430;2024-01-30T12:20:08;8.23;;;3.08;;
51618;SDS011;38518;53.164;5.430;2024-01-30T12:22:38;12.63;;;3.20;;
51618;SDS011;38518;53.164;5.430;2024-01-30T12:25:09;13.63;;;3.75;;
51618;SDS011;38518;53.164;5.430;2024-01-30T12:27:36;10.80;;;2.80;;
51618;SDS011;38518;53.164;5.430;2024-01-30T12:30:08;8.07;;;2.67;;
51618;SDS011;38518;53.164;5.430;2024-01-30T12:32:35;9.02;;;2.92;;
51618;SDS011;38518;53.164;5.430;2024-01-30T12:35:02;9.88;;;2.90;;
51618;SDS011;38518;53.164;5.430;2024-01-30T12:37:29;9.88;;;3.25;;
51618;SDS011;38518;53.164;5.430;2024-01-30T12:39:55;7.35;;;2.30;;
51618;SDS011;38518;53.164;5.430;2024-01-30T12:42:21;8.65;;;2.78;;
51618;SDS011;38518;53.164;5.430;2024-01-30T12:44:48;10.45;;;3.60;;
51618;SDS011;38518;53.164;5.430;2024-01-30T12:47:14;10.80;;;2.60;;
51618;SDS011;38518;53.164;5.430;2024-01-30T12:49:43;15.10;;;4.60;;
51618;SDS011;38518;53.164;5.430;2024-01-30T12:52:10;11.75;;;3.97;;
51618;SDS011;38518;53.164;5.430;2024-01-30T12:54:39;11.02;;;3.20;;
51618;SDS011;38518;53.164;5.430;2024-01-30T12:57:05;11.07;;;3.58;;
51618;SDS011;38518;53.164;5.430;2024-01-30T12:59:31;11.38;;;3.50;;
51618;SDS011;38518;53.164;5.430;2024-01-30T13:01:58;11.38;;;4.28;;
51618;SDS011;38518;53.164;5.430;2024-01-30T13:04:25;8.93;;;3.53;;
51618;SDS011;38518;53.164;5.430;2024-01-30T13:06:51;9.20;;;3.40;;
51618;SDS011;38518;53.164;5.430;2024-01-30T13:09:17;11.32;;;3.90;;
51618;SDS011;38518;53.164;5.430;2024-01-30T13:11:43;13.05;;;4.05;;
51618;SDS011;38518;53.164;5.430;2024-01-30T13:14:09;9.18;;;3.38;;
51618;SDS011;38518;53.164;5.430;2024-01-30T13:16:34;14.55;;;3.00;;
51618;SDS011;38518;53.164;5.430;2024-01-30T13:19:00;12.68;;;3.83;;
51618;SDS011;38518;53.164;5.430;2024-01-30T13:21:27;13.95;;;3.78;;
51618;SDS011;38518;53.164;5.430;2024-01-30T13:23:53;8.50;;;3.78;;
51618;SDS011;38518;53.164;5.430;2024-01-30T13:26:22;9.65;;;2.85;;
51618;SDS011;38518;53.164;5.430;2024-01-30T13:28:48;13.13;;;3.75;;
51618;SDS011;38518;53.164;5.430;2024-01-30T13:31:14;10.82;;;3.75;;
51618;SDS011;38518;53.164;5.430;2024-01-30T13:33:40;8.43;;;3.45;;
51618;SDS011;38518;53.164;5.430;2024-01-30T13:36:10;12.95;;;3.92;;
51618;SDS011;38518;53.164;5.430;2024-01-30T13:38:36;10.32;;;3.15;;
51618;SDS011;38518;53.164;5.430;2024-01-30T13:41:03;9.23;;;3.83;;
51618;SDS011;38518;53.164;5.430;2024-01-30T13:43:29;9.88;;;3.20;;
51618;SDS011;38518;53.164;5.430;2024-01-30T13:45:54;9.68;;;3.28;;
51618;SDS011;38518;53.164;5.430;2024-01-30T13:48:20;12.27;;;4.35;;
51618;SDS011;38518;53.164;5.430;2024-01-30T13:50:46;9.60;;;2.80;;
51618;SDS011;38518;53.164;5.430;2024-01-30T13:53:12;12.35;;;3.20;;
51618;SDS011;38518;53.164;5.430;2024-01-30T13:55:38;9.52;;;3.25;;
51618;SDS011;38518;53.164;5.430;2024-01-30T13:58:04;7.45;;;3.17;;
51618;SDS011;38518;53.164;5.430;2024-01-30T14:00:31;11.30;;;3.70;;
51618;SDS011;38518;53.164;5.430;2024-01-30T14:02:57;9.80;;;3.38;;
51618;SDS011;38518;53.164;5.430;2024-01-30T14:05:24;8.52;;;2.83;;
51618;SDS011;38518;53.164;5.430;2024-01-30T14:07:50;13.32;;;3.97;;
51618;SDS011;38518;53.164;5.430;2024-01-30T14:10:19;7.10;;;3.13;;
51618;SDS011;38518;53.164;5.430;2024-01-30T14:12:45;7.85;;;3.67;;
51618;SDS011;38518;53.164;5.430;2024-01-30T14:15:13;10.77;;;3.17;;
51618;SDS011;38518;53.164;5.430;2024-01-30T14:17:46;11.13;;;3.78;;
51618;SDS011;38518;53.164;5.430;2024-01-30T14:20:14;10.40;;;3.60;;
51618;SDS011;38518;53.164;5.430;2024-01-30T14:22:42;8.50;;;3.20;;
51618;SDS011;38518;53.164;5.430;2024-01-30T14:25:08;19.88;;;3.90;;